createdAt,value
2019-06-26T00:00:19.908Z,18.98
2019-06-26T00:02:48.990Z,18.99
2019-06-26T00:05:18.005Z,19.02
2019-06-26T00:07:47.115Z,19.03
2019-06-26T00:10:16.064Z,18.99
2019-06-26T00:12:45.187Z,18.98
2019-06-26T00:15:14.558Z,19.00
2019-06-26T00:17:43.653Z,18.95
2019-06-26T00:20:14.389Z,18.95
2019-06-26T00:22:43.385Z,18.95
2019-06-26T00:25:12.476Z,18.95
2019-06-26T00:27:41.819Z,18.92
2019-06-26T00:30:12.451Z,18.89
2019-06-26T00:32:42.570Z,18.83
2019-06-26T00:35:11.722Z,18.77
2019-06-26T00:37:40.775Z,18.70
2019-06-26T00:40:09.792Z,18.67
2019-06-26T00:42:38.953Z,18.66
2019-06-26T00:45:08.613Z,18.61
2019-06-26T00:47:37.632Z,18.55
2019-06-26T00:50:08.057Z,18.50
2019-06-26T00:52:37.165Z,18.48
2019-06-26T00:55:07.016Z,18.47
2019-06-26T00:57:37.067Z,18.40
2019-06-26T01:00:10.418Z,18.40
2019-06-26T01:02:39.976Z,18.35
2019-06-26T01:05:10.569Z,18.36
2019-06-26T01:07:39.717Z,18.38
2019-06-26T01:10:10.435Z,18.40
2019-06-26T01:12:39.522Z,18.40
2019-06-26T01:15:08.782Z,18.39
2019-06-26T01:17:37.800Z,18.39
2019-06-26T01:20:07.225Z,18.42
2019-06-26T01:22:36.265Z,18.49
2019-06-26T01:25:06.427Z,18.52
2019-06-26T01:27:35.483Z,18.59
2019-06-26T01:30:04.665Z,18.63
2019-06-26T01:32:34.021Z,18.66
2019-06-26T01:35:03.007Z,18.72
2019-06-26T01:37:32.234Z,18.80
2019-06-26T01:40:01.187Z,18.85
2019-06-26T01:42:30.483Z,18.89
2019-06-26T01:44:59.610Z,18.93
2019-06-26T01:47:28.611Z,18.95
2019-06-26T01:49:57.895Z,18.99
2019-06-26T01:52:27.254Z,18.99
2019-06-26T01:54:57.440Z,19.00
2019-06-26T01:57:26.870Z,19.03
2019-06-26T01:59:55.964Z,19.07
2019-06-26T02:02:25.277Z,19.09
2019-06-26T02:04:54.501Z,19.10
2019-06-26T02:07:23.480Z,19.15
2019-06-26T02:09:52.537Z,19.20
2019-06-26T02:12:21.559Z,19.23
2019-06-26T02:14:50.619Z,19.29
2019-06-26T02:17:19.713Z,19.30
2019-06-26T02:19:48.709Z,19.35
2019-06-26T02:22:17.646Z,19.38
2019-06-26T02:24:47.817Z,19.40
2019-06-26T02:27:17.017Z,19.44
2019-06-26T02:29:46.121Z,19.46
2019-06-26T02:32:15.180Z,19.50
2019-06-26T02:34:44.244Z,19.54
2019-06-26T02:37:13.430Z,19.54
2019-06-26T02:39:42.369Z,19.59
2019-06-26T02:42:12.572Z,19.62
2019-06-26T02:44:52.835Z,19.66
2019-06-26T02:47:20.138Z,19.73
2019-06-26T02:49:44.016Z,19.75
2019-06-26T02:52:13.004Z,19.76
2019-06-26T02:54:42.639Z,19.79
2019-06-26T02:57:11.645Z,19.82
2019-06-26T02:59:40.927Z,19.86
2019-06-26T03:02:10.113Z,19.89
2019-06-26T03:04:39.334Z,19.95
2019-06-26T03:07:08.435Z,20.02
2019-06-26T03:09:37.509Z,20.04
2019-06-26T03:12:06.481Z,20.06
2019-06-26T03:14:35.680Z,20.06
2019-06-26T03:17:04.576Z,20.10
2019-06-26T03:19:33.660Z,20.12
2019-06-26T03:22:03.440Z,20.18
2019-06-26T03:24:32.447Z,20.21
2019-06-26T03:27:01.666Z,20.25
2019-06-26T03:29:30.557Z,20.31
2019-06-26T03:32:00.783Z,20.39
2019-06-26T03:34:29.949Z,20.45
2019-06-26T03:36:59.376Z,20.49
2019-06-26T03:39:28.479Z,20.53
2019-06-26T03:41:57.660Z,20.54
2019-06-26T03:44:26.589Z,20.54
2019-06-26T03:46:55.719Z,20.55
2019-06-26T03:49:24.651Z,20.54
2019-06-26T03:51:54.776Z,20.53
2019-06-26T03:54:25.135Z,20.51
2019-06-26T03:56:54.258Z,20.50
2019-06-26T03:59:23.457Z,20.47
2019-06-26T04:01:52.678Z,20.41
2019-06-26T04:04:21.739Z,20.45
2019-06-26T04:06:50.957Z,20.48
2019-06-26T04:09:20.283Z,20.58
2019-06-26T04:11:49.480Z,20.70
2019-06-26T04:14:18.724Z,20.81
2019-06-26T04:16:47.815Z,20.91
2019-06-26T04:19:17.053Z,20.95
2019-06-26T04:21:46.417Z,21.00
2019-06-26T04:24:15.456Z,21.03
2019-06-26T04:26:44.819Z,21.09
2019-06-26T04:29:14.294Z,21.15
2019-06-26T04:31:43.367Z,21.17
2019-06-26T04:34:12.534Z,21.23
2019-06-26T04:36:42.034Z,21.28
2019-06-26T04:39:11.297Z,21.35
2019-06-26T04:41:40.657Z,21.42
2019-06-26T04:44:10.187Z,21.45
2019-06-26T04:46:39.210Z,21.48
2019-06-26T04:49:08.306Z,21.52
2019-06-26T04:51:37.360Z,21.58
2019-06-26T04:54:06.497Z,21.68
2019-06-26T04:56:35.791Z,21.82
2019-06-26T04:59:05.533Z,21.90
2019-06-26T05:01:35.062Z,21.95
2019-06-26T05:04:04.243Z,22.01
2019-06-26T05:06:33.661Z,22.10
2019-06-26T05:09:03.314Z,22.19
2019-06-26T05:11:37.024Z,22.31
2019-06-26T05:14:08.821Z,22.43
2019-06-26T05:16:37.939Z,22.57
2019-06-26T05:19:07.693Z,22.66
2019-06-26T05:21:36.928Z,22.67
2019-06-26T05:24:06.473Z,22.77
2019-06-26T05:26:35.646Z,22.78
2019-06-26T05:29:05.164Z,22.89
2019-06-26T05:31:35.509Z,23.07
2019-06-26T05:34:04.910Z,23.22
2019-06-26T05:36:34.064Z,23.37
2019-06-26T05:39:03.058Z,23.47
2019-06-26T05:41:32.039Z,23.54
2019-06-26T05:44:01.023Z,23.53
2019-06-26T05:46:31.722Z,23.54
2019-06-26T05:49:00.576Z,23.52
2019-06-26T05:51:29.443Z,23.47
2019-06-26T05:53:58.627Z,23.40
2019-06-26T05:56:28.154Z,23.39
2019-06-26T05:58:57.642Z,23.41
2019-06-26T06:01:26.787Z,23.53
2019-06-26T06:03:55.902Z,23.61
2019-06-26T06:06:37.493Z,23.80
2019-06-26T06:08:56.145Z,23.90
2019-06-26T06:11:25.473Z,24.04
2019-06-26T06:13:54.751Z,24.07
2019-06-26T06:16:23.963Z,24.19
2019-06-26T06:18:53.255Z,24.27
2019-06-26T06:21:22.473Z,24.36
2019-06-26T06:23:51.538Z,24.38
2019-06-26T06:26:20.693Z,24.45
2019-06-26T06:28:49.927Z,24.61
2019-06-26T06:31:19.160Z,24.66
2019-06-26T06:33:48.572Z,24.81
2019-06-26T06:36:18.077Z,24.89
2019-06-26T06:38:47.519Z,24.99
2019-06-26T06:41:17.290Z,25.00
2019-06-26T06:43:46.521Z,24.96
2019-06-26T06:46:15.738Z,24.94
2019-06-26T06:48:44.847Z,24.84
2019-06-26T06:51:14.079Z,24.89
2019-06-26T06:53:43.704Z,24.90
2019-06-26T06:56:12.903Z,24.96
2019-06-26T06:58:42.052Z,25.02
2019-06-26T07:01:11.650Z,25.02
2019-06-26T07:03:41.056Z,25.06
2019-06-26T07:06:10.114Z,25.06
2019-06-26T07:08:39.545Z,25.11
2019-06-26T07:11:08.867Z,25.14
2019-06-26T07:13:38.185Z,25.17
2019-06-26T07:16:07.765Z,25.28
2019-06-26T07:18:36.957Z,25.40
2019-06-26T07:21:06.565Z,25.56
2019-06-26T07:23:36.274Z,25.79
2019-06-26T07:26:05.915Z,26.08
2019-06-26T07:28:35.266Z,26.15
2019-06-26T07:31:04.582Z,26.19
2019-06-26T07:33:33.824Z,26.27
2019-06-26T07:36:03.643Z,26.33
2019-06-26T07:38:33.219Z,26.38
2019-06-26T07:41:02.599Z,26.39
2019-06-26T07:43:31.936Z,26.44
2019-06-26T07:46:02.337Z,26.57
2019-06-26T07:48:31.546Z,26.65
2019-06-26T07:51:00.774Z,26.76
2019-06-26T07:53:30.468Z,26.81
2019-06-26T07:55:59.670Z,26.77
2019-06-26T07:58:28.874Z,26.72
2019-06-26T08:00:58.271Z,26.58
2019-06-26T08:03:27.583Z,26.56
2019-06-26T08:05:56.773Z,26.52
2019-06-26T08:08:25.985Z,26.50
2019-06-26T08:10:55.329Z,26.48
2019-06-26T08:13:24.649Z,26.43
2019-06-26T08:15:53.672Z,26.50
2019-06-26T08:18:22.896Z,26.55
2019-06-26T08:21:11.074Z,26.58
2019-06-26T08:23:23.143Z,26.62
2019-06-26T08:25:52.193Z,26.51
2019-06-26T08:28:23.634Z,26.29
2019-06-26T08:30:52.870Z,26.11
2019-06-26T08:33:22.380Z,25.98
2019-06-26T08:35:51.511Z,25.85
2019-06-26T08:38:26.649Z,25.78
2019-06-26T08:41:09.692Z,25.44
2019-06-26T08:43:39.680Z,25.19
2019-06-26T08:46:30.543Z,25.07
2019-06-26T08:49:27.755Z,24.82
2019-06-26T08:52:06.271Z,24.76
2019-06-26T08:54:45.437Z,24.77
2019-06-26T08:57:25.201Z,24.92
2019-06-26T08:59:57.248Z,25.13
2019-06-26T09:02:46.991Z,25.32
2019-06-26T09:05:16.515Z,25.49
2019-06-26T09:07:45.781Z,25.79
2019-06-26T09:10:23.255Z,26.01
2019-06-26T09:12:54.269Z,26.24
2019-06-26T09:15:27.448Z,26.49
2019-06-26T09:18:34.802Z,26.66
2019-06-26T09:20:55.397Z,26.80
2019-06-26T09:23:40.019Z,26.93
2019-06-26T09:26:16.183Z,26.95
2019-06-26T09:28:57.267Z,26.91
2019-06-26T09:31:27.880Z,26.78
2019-06-26T09:34:04.807Z,26.50
2019-06-26T09:36:35.099Z,26.20
2019-06-26T09:39:06.294Z,25.91
2019-06-26T09:41:36.057Z,25.75
2019-06-26T09:44:07.866Z,25.82
2019-06-26T09:46:39.909Z,25.85
2019-06-26T09:49:09.274Z,25.82
2019-06-26T09:51:41.843Z,25.72
2019-06-26T09:54:11.486Z,25.71
2019-06-26T09:56:41.203Z,25.68
2019-06-26T09:59:14.455Z,25.69
2019-06-26T10:01:43.904Z,25.70
2019-06-26T10:04:13.593Z,25.66
2019-06-26T10:06:43.663Z,25.69
2019-06-26T10:09:14.590Z,25.70
2019-06-26T10:11:45.297Z,25.68
2019-06-26T10:14:15.506Z,25.60
2019-06-26T10:16:45.623Z,25.49
2019-06-26T10:19:19.189Z,25.46
2019-06-26T10:21:48.576Z,25.42
2019-06-26T10:24:18.287Z,25.41
2019-06-26T10:26:47.577Z,25.47
2019-06-26T10:29:20.483Z,25.54
2019-06-26T10:31:51.325Z,25.75
2019-06-26T10:34:22.308Z,26.17
2019-06-26T10:36:51.819Z,26.61
2019-06-26T10:39:21.417Z,26.93
2019-06-26T10:41:55.088Z,27.29
2019-06-26T10:44:24.677Z,27.70
2019-06-26T10:46:54.711Z,27.98
2019-06-26T10:49:27.455Z,28.39
2019-06-26T10:52:01.215Z,28.76
2019-06-26T10:54:35.154Z,28.88
2019-06-26T10:57:04.891Z,28.84
2019-06-26T10:59:36.427Z,28.50
2019-06-26T11:02:08.027Z,28.10
2019-06-26T11:04:39.050Z,27.62
2019-06-26T11:07:08.462Z,27.14
2019-06-26T11:09:38.108Z,26.77
2019-06-26T11:12:10.583Z,25.90
2019-06-26T11:14:40.105Z,25.38
2019-06-26T11:17:11.975Z,24.97
2019-06-26T11:19:48.510Z,24.68
2019-06-26T11:22:17.772Z,24.51
2019-06-26T11:24:47.329Z,24.49
2019-06-26T11:27:17.133Z,24.53
2019-06-26T11:29:46.556Z,24.70
2019-06-26T11:32:16.898Z,24.84
2019-06-26T11:34:45.979Z,25.06
2019-06-26T11:37:15.204Z,25.16
2019-06-26T11:39:44.270Z,25.18
2019-06-26T11:42:13.556Z,25.04
2019-06-26T11:44:42.931Z,24.98
2019-06-26T11:47:12.162Z,24.95
2019-06-26T11:49:41.400Z,24.85
2019-06-26T11:52:10.548Z,24.73
2019-06-26T11:54:39.687Z,24.68
2019-06-26T11:57:08.810Z,24.52
2019-06-26T11:59:37.923Z,24.50
2019-06-26T12:02:07.218Z,24.52
2019-06-26T12:04:36.387Z,24.49
2019-06-26T12:07:05.813Z,24.53
2019-06-26T12:09:34.482Z,24.65
2019-06-26T12:12:03.863Z,24.78
2019-06-26T12:14:32.876Z,24.85
2019-06-26T12:17:02.019Z,24.97
2019-06-26T12:19:31.457Z,25.07
2019-06-26T12:22:01.897Z,25.11
2019-06-26T12:24:30.885Z,25.05
2019-06-26T12:26:59.919Z,24.98
2019-06-26T12:29:31.987Z,24.94
2019-06-26T12:32:00.657Z,25.02
2019-06-26T12:34:29.851Z,24.93
2019-06-26T12:36:59.087Z,24.76
2019-06-26T12:39:28.183Z,24.47
2019-06-26T12:41:57.238Z,24.30
2019-06-26T12:44:26.055Z,24.07
2019-06-26T12:46:55.186Z,23.78
2019-06-26T12:49:24.325Z,23.50
2019-06-26T12:51:53.105Z,23.20
2019-06-26T12:54:22.101Z,22.97
2019-06-26T12:56:51.212Z,22.91
2019-06-26T12:59:20.325Z,22.70
2019-06-26T13:01:49.367Z,22.48
2019-06-26T13:04:18.432Z,22.30
2019-06-26T13:06:47.666Z,22.13
2019-06-26T13:09:17.070Z,21.95
2019-06-26T13:11:46.310Z,21.83
2019-06-26T13:14:15.834Z,21.66
2019-06-26T13:16:45.096Z,21.51
2019-06-26T13:19:15.456Z,21.38
2019-06-26T13:21:44.800Z,21.32
2019-06-26T13:24:14.235Z,21.35
2019-06-26T13:26:43.951Z,21.54
2019-06-26T13:29:13.376Z,21.73
2019-06-26T13:31:42.502Z,21.94
2019-06-26T13:34:11.752Z,22.14
2019-06-26T13:36:40.363Z,22.14
2019-06-26T13:39:09.351Z,22.02
2019-06-26T13:41:38.556Z,21.85
2019-06-26T13:44:08.059Z,21.67
2019-06-26T13:46:37.186Z,21.44
2019-06-26T13:49:06.362Z,21.26
2019-06-26T13:51:35.544Z,21.09
2019-06-26T13:54:04.743Z,20.90
2019-06-26T13:56:33.855Z,20.82
2019-06-26T13:59:03.249Z,20.78
2019-06-26T14:01:32.207Z,20.79
2019-06-26T14:04:01.547Z,20.65
2019-06-26T14:06:30.628Z,20.45
2019-06-26T14:08:59.766Z,20.07
2019-06-26T14:11:28.946Z,19.42
2019-06-26T14:13:57.950Z,18.68
2019-06-26T14:16:30.037Z,18.33
2019-06-26T14:18:59.481Z,17.64
2019-06-26T14:21:28.715Z,17.33
2019-06-26T14:23:57.967Z,17.17
2019-06-26T14:26:28.651Z,17.08
2019-06-26T14:28:58.408Z,17.01
2019-06-26T14:31:28.142Z,16.99
2019-06-26T14:33:57.262Z,16.93
2019-06-26T14:36:26.567Z,16.84
2019-06-26T14:38:55.848Z,16.83
2019-06-26T14:41:24.863Z,16.78
2019-06-26T14:43:54.006Z,16.77
2019-06-26T14:46:23.223Z,16.78
2019-06-26T14:48:52.487Z,16.79
2019-06-26T14:51:21.761Z,16.78
2019-06-26T14:53:51.239Z,16.79
2019-06-26T14:56:20.501Z,16.78
2019-06-26T14:58:49.601Z,16.77
2019-06-26T15:01:18.967Z,16.75
2019-06-26T15:03:48.056Z,16.76
2019-06-26T15:06:17.679Z,16.75
2019-06-26T15:08:49.571Z,16.75
2019-06-26T15:11:18.810Z,16.78
2019-06-26T15:13:49.477Z,16.73
2019-06-26T15:16:18.815Z,16.64
2019-06-26T15:18:48.004Z,16.59
2019-06-26T15:21:17.665Z,16.61
2019-06-26T15:23:47.038Z,16.61
2019-06-26T15:26:16.286Z,16.62
2019-06-26T15:28:46.670Z,16.61
2019-06-26T15:31:15.791Z,16.67
2019-06-26T15:33:45.012Z,16.70
2019-06-26T15:36:14.233Z,16.72
2019-06-26T15:38:43.595Z,16.68
2019-06-26T15:41:13.307Z,16.66
2019-06-26T15:43:42.530Z,16.64
2019-06-26T15:46:12.463Z,16.64
2019-06-26T15:48:43.644Z,16.64
2019-06-26T15:51:15.490Z,16.62
2019-06-26T15:53:45.510Z,16.66
2019-06-26T15:56:15.286Z,16.70
2019-06-26T15:58:45.877Z,16.75
2019-06-26T16:01:16.228Z,16.80
2019-06-26T16:03:45.529Z,16.83
2019-06-26T16:06:14.887Z,16.84
2019-06-26T16:08:44.583Z,16.86
2019-06-26T16:11:13.785Z,16.86
2019-06-26T16:13:42.916Z,16.93
2019-06-26T16:16:12.267Z,17.02
2019-06-26T16:18:46.426Z,17.10
2019-06-26T16:21:16.032Z,17.12
2019-06-26T16:23:44.964Z,17.10
2019-06-26T16:26:15.094Z,17.04
2019-06-26T16:28:46.292Z,17.03
2019-06-26T16:31:15.461Z,17.05
2019-06-26T16:33:44.294Z,17.04
2019-06-26T16:36:13.897Z,17.05
2019-06-26T16:38:44.141Z,17.03
2019-06-26T16:41:13.714Z,16.97
2019-06-26T16:43:42.966Z,16.90
2019-06-26T16:46:12.433Z,16.88
2019-06-26T16:48:42.163Z,16.84
2019-06-26T16:51:11.480Z,16.84
2019-06-26T16:53:40.668Z,16.79
2019-06-26T16:56:09.949Z,16.75
2019-06-26T16:58:39.732Z,16.73
2019-06-26T17:01:10.179Z,16.75
2019-06-26T17:03:39.685Z,16.78
2019-06-26T17:06:08.987Z,16.73
2019-06-26T17:08:38.168Z,16.69
2019-06-26T17:11:07.367Z,16.62
2019-06-26T17:13:39.076Z,16.59
2019-06-26T17:16:08.273Z,16.52
2019-06-26T17:18:37.765Z,16.44
2019-06-26T17:21:07.173Z,16.37
2019-06-26T17:23:36.949Z,16.34
2019-06-26T17:26:06.152Z,16.29
2019-06-26T17:28:35.960Z,16.30
2019-06-26T17:31:05.379Z,16.29
2019-06-26T17:33:35.954Z,16.29
2019-06-26T17:36:05.205Z,16.33
2019-06-26T17:38:34.417Z,16.35
2019-06-26T17:41:03.887Z,16.34
2019-06-26T17:43:33.413Z,16.33
2019-06-26T17:46:02.810Z,16.31
2019-06-26T17:48:31.947Z,16.30
2019-06-26T17:51:01.341Z,16.26
2019-06-26T17:53:30.712Z,16.20
2019-06-26T17:55:59.622Z,16.14
2019-06-26T17:58:29.149Z,16.13
2019-06-26T18:00:58.401Z,16.08
2019-06-26T18:03:27.825Z,16.13
2019-06-26T18:05:57.183Z,16.17
2019-06-26T18:08:26.701Z,16.17
2019-06-26T18:10:56.407Z,16.18
2019-06-26T18:13:25.629Z,16.16
2019-06-26T18:15:54.780Z,16.13
2019-06-26T18:18:24.093Z,16.19
2019-06-26T18:20:54.048Z,16.25
2019-06-26T18:23:36.670Z,16.20
2019-06-26T18:26:08.424Z,16.18
2019-06-26T18:28:24.940Z,16.15
2019-06-26T18:30:54.114Z,16.08
2019-06-26T18:33:23.803Z,16.02
2019-06-26T18:35:53.144Z,16.04
2019-06-26T18:38:22.657Z,16.03
2019-06-26T18:40:52.178Z,16.04
2019-06-26T18:43:24.746Z,16.03
2019-06-26T18:45:54.172Z,16.01
2019-06-26T18:48:25.006Z,16.00
2019-06-26T18:50:54.633Z,15.97
2019-06-26T18:53:26.548Z,15.93
2019-06-26T18:55:57.499Z,15.91
2019-06-26T18:58:30.581Z,15.89
2019-06-26T19:00:59.795Z,15.85
2019-06-26T19:03:29.145Z,15.83
2019-06-26T19:05:58.607Z,15.84
2019-06-26T19:08:28.194Z,15.84
2019-06-26T19:10:58.255Z,15.85
2019-06-26T19:13:29.429Z,15.86
2019-06-26T19:15:58.932Z,15.83
2019-06-26T19:18:28.191Z,15.88
2019-06-26T19:20:57.538Z,15.89
2019-06-26T19:23:26.979Z,15.87
2019-06-26T19:25:56.363Z,15.83
2019-06-26T19:28:25.817Z,15.78
2019-06-26T19:30:55.388Z,15.72
2019-06-26T19:33:24.737Z,15.72
2019-06-26T19:35:54.197Z,15.65
2019-06-26T19:38:23.722Z,15.70
2019-06-26T19:40:53.016Z,15.70
2019-06-26T19:43:22.189Z,15.66
2019-06-26T19:45:51.553Z,15.69
2019-06-26T19:48:20.711Z,15.72
2019-06-26T19:50:49.999Z,15.73
2019-06-26T19:53:19.239Z,15.71
2019-06-26T19:55:48.657Z,15.74
2019-06-26T19:58:21.573Z,15.81
2019-06-26T20:00:50.255Z,15.75
2019-06-26T20:03:19.454Z,15.78
2019-06-26T20:05:48.671Z,15.83
2019-06-26T20:08:17.767Z,15.76
2019-06-26T20:10:47.511Z,15.77
2019-06-26T20:13:16.743Z,15.73
2019-06-26T20:15:46.008Z,15.72
2019-06-26T20:18:15.686Z,15.72
2019-06-26T20:20:44.769Z,15.73
2019-06-26T20:23:14.242Z,15.74
2019-06-26T20:25:43.592Z,15.74
2019-06-26T20:28:12.950Z,15.73
2019-06-26T20:30:42.139Z,15.79
2019-06-26T20:33:11.532Z,15.80
2019-06-26T20:35:40.980Z,15.79
2019-06-26T20:38:10.504Z,15.81
2019-06-26T20:40:39.728Z,15.84
2019-06-26T20:43:10.353Z,15.81
2019-06-26T20:45:39.666Z,15.82
2019-06-26T20:48:08.970Z,15.82
2019-06-26T20:50:38.360Z,15.81
2019-06-26T20:53:07.682Z,15.83
2019-06-26T20:55:37.036Z,15.86
2019-06-26T20:58:06.218Z,15.90
2019-06-26T21:00:35.442Z,15.96
2019-06-26T21:03:05.000Z,15.98
2019-06-26T21:05:34.384Z,16.03
2019-06-26T21:08:03.565Z,16.04
2019-06-26T21:10:32.765Z,16.05
2019-06-26T21:13:01.910Z,16.08
2019-06-26T21:15:31.378Z,16.08
2019-06-26T21:18:00.397Z,16.06
2019-06-26T21:20:29.738Z,16.03
2019-06-26T21:22:58.982Z,16.09
2019-06-26T21:25:28.102Z,16.05
2019-06-26T21:27:57.499Z,16.08
2019-06-26T21:30:26.631Z,16.11
2019-06-26T21:32:55.775Z,16.10
2019-06-26T21:35:24.934Z,16.15
2019-06-26T21:37:54.196Z,16.13
2019-06-26T21:40:23.563Z,16.10
2019-06-26T21:42:52.713Z,16.08
2019-06-26T21:45:21.988Z,16.10
2019-06-26T21:47:51.183Z,16.11
2019-06-26T21:50:20.746Z,16.06
2019-06-26T21:52:50.307Z,16.10
2019-06-26T21:55:33.684Z,16.08
2019-06-26T21:58:09.497Z,16.12
2019-06-26T22:00:56.231Z,16.15
2019-06-26T22:03:43.004Z,16.18
2019-06-26T22:06:31.915Z,16.13
2019-06-26T22:09:17.823Z,16.14
2019-06-26T22:11:47.459Z,16.13
2019-06-26T22:14:16.775Z,16.12
2019-06-26T22:16:46.301Z,16.12
2019-06-26T22:19:15.667Z,16.11
2019-06-26T22:21:45.122Z,16.10
2019-06-26T22:24:14.428Z,16.10
2019-06-26T22:27:01.315Z,16.10
2019-06-26T22:29:30.745Z,16.13
2019-06-26T22:32:00.509Z,16.14
2019-06-26T22:34:29.589Z,16.14
2019-06-26T22:36:59.023Z,16.09
2019-06-26T22:39:28.099Z,16.10
2019-06-26T22:41:57.582Z,16.03
2019-06-26T22:44:26.956Z,16.02
2019-06-26T22:46:56.075Z,15.98
2019-06-26T22:49:25.392Z,15.97
2019-06-26T22:51:55.070Z,16.00
2019-06-26T22:54:24.573Z,15.99
2019-06-26T22:56:54.040Z,15.99
2019-06-26T22:59:23.237Z,16.00
2019-06-26T23:01:52.316Z,15.99
2019-06-26T23:04:21.835Z,16.01
2019-06-26T23:06:51.012Z,15.98
2019-06-26T23:09:20.309Z,15.99
2019-06-26T23:11:49.544Z,16.01
2019-06-26T23:14:18.734Z,16.03
2019-06-26T23:16:47.905Z,16.04
2019-06-26T23:19:16.992Z,16.04
2019-06-26T23:21:46.188Z,16.06
2019-06-26T23:24:15.329Z,16.06
2019-06-26T23:26:44.512Z,16.05
2019-06-26T23:29:13.606Z,16.05
2019-06-26T23:31:43.065Z,16.04
2019-06-26T23:34:13.049Z,16.02
2019-06-26T23:36:42.548Z,15.99
2019-06-26T23:39:11.838Z,15.94
2019-06-26T23:41:41.021Z,15.87
2019-06-26T23:44:10.518Z,15.79
2019-06-26T23:46:39.818Z,15.64
2019-06-26T23:49:08.841Z,15.49
2019-06-26T23:51:38.375Z,15.38
2019-06-26T23:54:07.687Z,15.26
2019-06-26T23:56:40.801Z,15.21
2019-06-26T23:59:07.641Z,15.16
